Tallahassee Regional Airport
KTLH : now visible

Airfield :











YOU CAN JOIN US ON...

 
LOGIN :

Register | Disclaimer

   EN    FR    IT 

 









Legend :    VFR   Marginal VFR   IFR   Intensive IFR   Very Intensive IFR
Visi :
Ceiling :
>= 8 km
>= 3000ft
5 to 8 km
1000 to 3000 ft
1500m to 5 km
500 to 1000 ft
800 to 1500m
200 to 500 ft
< 800m
< 200 ft
Symbols :   Thunderstorms  Fog  Heavy snow  Heavy precipitations  Wind > 20 kt






- Airport Elevation : 81 ft
- IATA code : TLH


KTLH - Tallahassee Regional

CURRENT METAR :
  • 080753Z AUTO 07007KT 10SM FEW080 14/10 A3019 RMK AO2 SLP223 T01390100

EXPIRED METARs :
  • 080653Z AUTO 08009KT 10SM BKN080 15/10 A3020 RMK AO2 SLP224 T01500100
  • 080553Z AUTO 08007KT 10SM OVC080 16/10 A3020 RMK AO2 SLP225 T01560100 10183 20156 50000

TAF KTLH
Valid from the 08 at 06:00 until the 09 at 06:00 UTC


080520Z 0806/0906 09010KT P6SM BKN035
FM081000 09010KT P6SM BKN020
FM081800 12009KT P6SM BKN035



MET'MAP, your aeronautical weather chart ! - Copyright ORBIFLY December 2007 - Disclaimer

ORBIFLY MET'MAP TEAM :

Programming & Development : Alexandra Zaïnal
Concept & original design : Baudouin d'Aumeries
Assistance for programming : Marc-Olivier Méhu
Technical & hardware support : Manuel Goepfert

Contact : metmap@orbifly.com




SOURCES & CREDITS :

   NOAA       Earth
Advisory